Time;durP1;ratioP1;P1;durP2;ratioP2;P2;SDS_P1;SDS_P2;PMS_P1;PMS_P2;Temp;Humidity;BMP_temperature;BMP_pressure;BME280_temperature;BME280_humidity;BME280_pressure;Samples;Min_cycle;Max_cycle;Signal;HPM_P1;HPM_P2
2023/09/01 00:01:14;;;;;;;6.2;2.7;;;;;;;12.38;89.28;;;;;
2023/09/01 00:12:14;;;;;;;4.2;2;;;;;;;12.82;89.79;;;;;
2023/09/01 00:22:14;;;;;;;4.2;2;;;;;;;12.85;89.05;;;;;
2023/09/01 00:33:14;;;;;;;4.2;2;;;;;;;12.9;89.15;;;;;
2023/09/01 00:43:14;;;;;;;7.5;2.8;;;;;;;12.9;88.71;;;;;
2023/09/01 00:54:14;;;;;;;7.5;2.8;;;;;;;13.02;88.99;;;;;
2023/09/01 01:04:14;;;;;;;7.5;2.8;;;;;;;13.04;88.88;;;;;
2023/09/01 01:15:14;;;;;;;5.7;2.6;;;;;;;13.19;88.16;;;;;
2023/09/01 01:26:14;;;;;;;5.7;2.6;;;;;;;13.05;87.59;;;;;
2023/09/01 01:36:14;;;;;;;5.7;2.6;;;;;;;12.85;87.89;;;;;
2023/09/01 01:47:14;;;;;;;8.3;2.9;;;;;;;12.63;87.27;;;;;
2023/09/01 01:57:15;;;;;;;8.3;2.9;;;;;;;12.4;86.98;;;;;
2023/09/01 02:08:14;;;;;;;8.3;2.9;;;;;;;12.4;86.12;;;;;
2023/09/01 02:18:15;;;;;;;3.3;1.6;;;;;;;12.35;85.51;;;;;
2023/09/01 02:28:16;;;;;;;3.3;1.6;;;;;;;12.18;85.67;;;;;
2023/09/01 02:39:16;;;;;;;3.3;1.6;;;;;;;12.03;86.31;;;;;
2023/09/01 02:50:14;;;;;;;4;1.7;;;;;;;11.76;87.09;;;;;
2023/09/01 03:00:18;;;;;;;4;1.7;;;;;;;11.67;87.34;;;;;
2023/09/01 03:11:15;;;;;;;5;2.4;;;;;;;11.63;87.39;;;;;
2023/09/01 03:21:15;;;;;;;5;2.4;;;;;;;11.77;87.11;;;;;
2023/09/01 03:32:15;;;;;;;5;2.4;;;;;;;11.91;86.55;;;;;
2023/09/01 03:42:15;;;;;;;4;1.8;;;;;;;11.8;85.91;;;;;
2023/09/01 03:53:14;;;;;;;4;1.8;;;;;;;11.68;85.8;;;;;
2023/09/01 04:03:15;;;;;;;4;1.8;;;;;;;11.52;86.41;;;;;
2023/09/01 04:14:15;;;;;;;4.9;2.1;;;;;;;11.4;86.3;;;;;
2023/09/01 04:24:15;;;;;;;4.9;2.1;;;;;;;11.38;86.44;;;;;
2023/09/01 04:34:15;;;;;;;4.9;2.1;;;;;;;11.61;86.12;;;;;
2023/09/01 04:45:15;;;;;;;4.4;1.8;;;;;;;11.86;85.9;;;;;
2023/09/01 04:56:15;;;;;;;4.4;1.8;;;;;;;12.17;85.45;;;;;
2023/09/01 05:06:15;;;;;;;4.4;1.8;;;;;;;12.51;85.51;;;;;
2023/09/01 05:17:15;;;;;;;5.9;1.9;;;;;;;12.92;83.46;;;;;
2023/09/01 05:27:15;;;;;;;5.9;1.9;;;;;;;13.29;83.4;;;;;
2023/09/01 05:38:15;;;;;;;5.9;1.9;;;;;;;13.68;79.91;;;;;
2023/09/01 05:49:15;;;;;;;4.1;2.3;;;;;;;14.12;79.79;;;;;
2023/09/01 05:59:15;;;;;;;4.1;2.3;;;;;;;14.58;79.57;;;;;
2023/09/01 06:09:16;;;;;;;4.1;2.3;;;;;;;14.84;78.58;;;;;
2023/09/01 06:19:15;;;;;;;8.4;2.8;;;;;;;15;78.56;;;;;
2023/09/01 06:30:15;;;;;;;8.4;2.8;;;;;;;15.55;77.94;;;;;
2023/09/01 06:40:15;;;;;;;8.4;2.8;;;;;;;16.01;78.08;;;;;
2023/09/01 06:51:15;;;;;;;5.8;2.6;;;;;;;16.57;76.97;;;;;
2023/09/01 07:01:15;;;;;;;5.8;2.6;;;;;;;16.71;71.44;;;;;
2023/09/01 07:11:19;;;;;;;5.8;2.4;;;;;;;17.2;73.11;;;;;
2023/09/01 07:21:15;;;;;;;5.8;2.4;;;;;;;17.5;71.15;;;;;
2023/09/01 07:32:15;;;;;;;5.8;2.4;;;;;;;17.92;69.19;;;;;
2023/09/01 07:42:15;;;;;;;5.3;2.3;;;;;;;18.25;68.6;;;;;
2023/09/01 07:52:15;;;;;;;5.3;2.3;;;;;;;18.54;66.82;;;;;
2023/09/01 08:02:15;;;;;;;5.3;2.3;;;;;;;18.85;62.66;;;;;
2023/09/01 08:12:15;;;;;;;4.7;2.4;;;;;;;19.09;61.09;;;;;
2023/09/01 08:22:15;;;;;;;4.7;2.4;;;;;;;19.03;57.5;;;;;
2023/09/01 08:33:17;;;;;;;4.7;2.4;;;;;;;19.45;60.48;;;;;
2023/09/01 08:43:15;;;;;;;5.6;2.6;;;;;;;20.65;53.35;;;;;
2023/09/01 08:54:15;;;;;;;5.6;2.6;;;;;;;20.71;54.98;;;;;
2023/09/01 09:05:15;;;;;;;5.6;2.6;;;;;;;20.87;49.94;;;;;
2023/09/01 09:15:16;;;;;;;4.5;2.1;;;;;;;20.96;51.74;;;;;
2023/09/01 09:26:15;;;;;;;4.5;2.1;;;;;;;21.46;52.17;;;;;
2023/09/01 09:36:15;;;;;;;4.5;2.1;;;;;;;21.66;49.07;;;;;
2023/09/01 09:47:15;;;;;;;4.8;2.3;;;;;;;21.69;50.53;;;;;
2023/09/01 09:58:15;;;;;;;4.8;2.3;;;;;;;21.94;52.63;;;;;
2023/09/01 10:09:17;;;;;;;4.8;2.3;;;;;;;21.78;49.63;;;;;
2023/09/01 10:20:16;;;;;;;8;2.9;;;;;;;22;49.98;;;;;
2023/09/01 10:30:15;;;;;;;8;2.9;;;;;;;22.24;50.51;;;;;
2023/09/01 10:41:15;;;;;;;5;2.2;;;;;;;22.14;50.35;;;;;
2023/09/01 10:52:16;;;;;;;5;2.2;;;;;;;22.15;50.82;;;;;
2023/09/01 11:02:15;;;;;;;5;2.2;;;;;;;22.51;47.8;;;;;
2023/09/01 11:13:15;;;;;;;4.6;2.2;;;;;;;22.49;50.89;;;;;
2023/09/01 11:23:15;;;;;;;4.6;2.2;;;;;;;22.31;50.55;;;;;
2023/09/01 11:33:15;;;;;;;4.6;2.2;;;;;;;22.47;50.31;;;;;
2023/09/01 11:44:15;;;;;;;4.6;2.1;;;;;;;22.71;51.3;;;;;
2023/09/01 11:55:15;;;;;;;4.6;2.1;;;;;;;22.9;48.39;;;;;
2023/09/01 12:06:15;;;;;;;4.6;2.1;;;;;;;22.93;50.48;;;;;
2023/09/01 12:17:16;;;;;;;6;2.4;;;;;;;23.8;47.07;;;;;
2023/09/01 12:28:15;;;;;;;6;2.4;;;;;;;23.65;45.61;;;;;
2023/09/01 12:39:15;;;;;;;6;2.4;;;;;;;22.94;49.24;;;;;
2023/09/01 12:50:15;;;;;;;5.1;2.3;;;;;;;23.41;47.95;;;;;
2023/09/01 13:00:15;;;;;;;5.1;2.3;;;;;;;23.64;47.17;;;;;
2023/09/01 13:10:15;;;;;;;5.1;2.3;;;;;;;23.52;48.72;;;;;
2023/09/01 13:21:15;;;;;;;5.9;2.3;;;;;;;23.39;48.27;;;;;
2023/09/01 13:32:15;;;;;;;5.9;2.3;;;;;;;23.61;47.53;;;;;
2023/09/01 13:42:15;;;;;;;5.4;2.6;;;;;;;23.33;48.75;;;;;
2023/09/01 13:53:15;;;;;;;5.4;2.6;;;;;;;22.86;48.76;;;;;
2023/09/01 14:03:15;;;;;;;5.4;2.6;;;;;;;22.77;50.35;;;;;
2023/09/01 14:13:15;;;;;;;4.9;2.4;;;;;;;22.58;51.92;;;;;
2023/09/01 14:23:15;;;;;;;4.9;2.4;;;;;;;22.74;52.73;;;;;
2023/09/01 14:34:15;;;;;;;4.9;2.4;;;;;;;23.03;51.79;;;;;
2023/09/01 14:44:15;;;;;;;5.1;2.4;;;;;;;23.1;52.63;;;;;
2023/09/01 14:54:15;;;;;;;5.1;2.4;;;;;;;23.24;49.25;;;;;
2023/09/01 15:05:15;;;;;;;5.1;2.4;;;;;;;22.97;51.3;;;;;
2023/09/01 15:15:15;;;;;;;5.5;2.4;;;;;;;22.66;53.52;;;;;
2023/09/01 15:26:15;;;;;;;5.5;2.4;;;;;;;22.52;54.19;;;;;
2023/09/01 15:37:15;;;;;;;5.5;2.4;;;;;;;22.01;55.91;;;;;
2023/09/01 15:47:15;;;;;;;6.3;3.2;;;;;;;21.9;57.39;;;;;
2023/09/01 15:58:15;;;;;;;6.3;3.2;;;;;;;21.68;58.8;;;;;
2023/09/01 16:09:15;;;;;;;6.3;3.2;;;;;;;21.62;59.46;;;;;
2023/09/01 16:19:18;;;;;;;5.2;2.4;;;;;;;21.53;59.04;;;;;
2023/09/01 16:30:15;;;;;;;5.2;2.4;;;;;;;21.73;57.4;;;;;
2023/09/01 16:40:15;;;;;;;5.2;2.4;;;;;;;21.46;58.74;;;;;
2023/09/01 16:51:15;;;;;;;5.2;2.4;;;;;;;20.74;60.42;;;;;
2023/09/01 17:01:15;;;;;;;5.2;2.4;;;;;;;19.73;62.92;;;;;
2023/09/01 17:11:15;;;;;;;5.2;2.4;;;;;;;19.1;65.27;;;;;
2023/09/01 17:22:15;;;;;;;6.1;2.8;;;;;;;18.71;66.38;;;;;
2023/09/01 17:33:15;;;;;;;6.1;2.8;;;;;;;18.39;67.45;;;;;
2023/09/01 17:43:16;;;;;;;4.6;2.7;;;;;;;18.18;68.63;;;;;
2023/09/01 17:54:17;;;;;;;4.6;2.7;;;;;;;18;69.47;;;;;
2023/09/01 18:04:16;;;;;;;4.6;2.7;;;;;;;17.94;70.35;;;;;
2023/09/01 18:15:17;;;;;;;7.1;3.7;;;;;;;17.81;72.23;;;;;
2023/09/01 18:25:15;;;;;;;7.1;3.7;;;;;;;17.85;72.16;;;;;
2023/09/01 18:36:15;;;;;;;7.1;3.7;;;;;;;17.88;72.32;;;;;
2023/09/01 18:47:15;;;;;;;8.5;4;;;;;;;17.9;72.74;;;;;
2023/09/01 18:57:15;;;;;;;8.5;4;;;;;;;17.76;72.54;;;;;
2023/09/01 19:08:17;;;;;;;8.5;4;;;;;;;17.63;73.07;;;;;
2023/09/01 19:19:15;;;;;;;6;3.4;;;;;;;17.54;72.93;;;;;
2023/09/01 19:30:15;;;;;;;6;3.4;;;;;;;17.57;73.21;;;;;
2023/09/01 19:41:15;;;;;;;6;3.4;;;;;;;17.64;73.32;;;;;
2023/09/01 19:51:15;;;;;;;6.6;3.4;;;;;;;17.63;74.66;;;;;
2023/09/01 20:02:15;;;;;;;6.6;3.4;;;;;;;17.66;74.73;;;;;
2023/09/01 20:13:15;;;;;;;7.6;3.6;;;;;;;17.73;74.43;;;;;
2023/09/01 20:23:15;;;;;;;7.6;3.6;;;;;;;17.76;73.7;;;;;
2023/09/01 20:34:15;;;;;;;7.6;3.6;;;;;;;17.6;74.29;;;;;
2023/09/01 20:44:15;;;;;;;6.1;3.7;;;;;;;17.37;74.77;;;;;
2023/09/01 20:55:16;;;;;;;6.1;3.7;;;;;;;17.23;75.3;;;;;
2023/09/01 21:06:15;;;;;;;6.1;3.7;;;;;;;16.92;76.53;;;;;
2023/09/01 21:16:15;;;;;;;7.3;3.2;;;;;;;16.8;77;;;;;
2023/09/01 21:27:15;;;;;;;7.3;3.2;;;;;;;16.67;78.15;;;;;
2023/09/01 21:38:15;;;;;;;7.3;3.2;;;;;;;16.68;78.57;;;;;
2023/09/01 21:49:15;;;;;;;5.9;3.5;;;;;;;16.75;78.31;;;;;
2023/09/01 22:00:15;;;;;;;5.9;3.5;;;;;;;16.86;79.46;;;;;
2023/09/01 22:10:15;;;;;;;5.9;3.5;;;;;;;16.88;80.38;;;;;
2023/09/01 22:20:16;;;;;;;6.6;4.1;;;;;;;16.92;81.46;;;;;
2023/09/01 22:30:15;;;;;;;6.6;4.1;;;;;;;17.11;80.31;;;;;
2023/09/01 22:41:15;;;;;;;6.6;4.1;;;;;;;17.27;80.24;;;;;
2023/09/01 22:51:15;;;;;;;7.9;3.9;;;;;;;17.38;79.87;;;;;
2023/09/01 23:02:16;;;;;;;7.9;3.9;;;;;;;17.52;79.47;;;;;
2023/09/01 23:13:15;;;;;;;6.4;3.4;;;;;;;17.69;78.91;;;;;
2023/09/01 23:24:15;;;;;;;6.4;3.4;;;;;;;17.6;79.84;;;;;
2023/09/01 23:34:15;;;;;;;6.4;3.4;;;;;;;17.6;81.09;;;;;
2023/09/01 23:45:15;;;;;;;5.4;3.4;;;;;;;17.33;85.29;;;;;
2023/09/01 23:56:15;;;;;;;5.4;3.4;;;;;;;17.32;86.45;;;;;
